Time;durP1;ratioP1;P1;durP2;ratioP2;P2;SDS_P1;SDS_P2;PMS_P1;PMS_P2;Temp;Humidity;BMP_temperature;BMP_pressure;BME280_temperature;BME280_humidity;BME280_pressure;Samples;Min_cycle;Max_cycle;Signal;HPM_P1;HPM_P2
2021/10/18 00:02:06;;;;;;;15.05;9.32;;;;;;;9.13;86.07;102280.44;5094184;28;20024;-75
2021/10/18 00:04:31;;;;;;;13.93;9.38;;;;;;;9.14;85.66;102286.63;5093385;28;20051;-75
2021/10/18 00:06:56;;;;;;;12.18;8.75;;;;;;;9.14;85.69;102276.84;5094030;28;20036;-75
2021/10/18 00:09:22;;;;;;;11.55;8.15;;;;;;;9.15;85.63;102275.03;5093955;28;20044;-75
2021/10/18 00:11:47;;;;;;;17.23;9.88;;;;;;;9.15;85.60;102281.22;5093303;28;20040;-75
2021/10/18 00:14:13;;;;;;;18.25;9.30;;;;;;;9.17;85.27;102284.63;5093515;28;20030;-75
2021/10/18 00:16:39;;;;;;;12.13;9.15;;;;;;;9.18;85.32;102283.69;5093218;28;20461;-75
2021/10/18 00:19:05;;;;;;;16.13;9.73;;;;;;;9.18;85.72;102286.34;5093784;28;20028;-75
2021/10/18 00:21:31;;;;;;;17.48;9.38;;;;;;;9.20;85.62;102288.06;5093730;28;20032;-80
2021/10/18 00:23:56;;;;;;;16.17;10.00;;;;;;;9.20;85.54;102293.38;5093436;28;20100;-76
2021/10/18 00:26:22;;;;;;;12.10;8.60;;;;;;;9.21;85.76;102287.97;5093720;28;20039;-75
2021/10/18 00:28:47;;;;;;;15.27;9.82;;;;;;;9.21;85.71;102297.72;5093119;28;20465;-76
2021/10/18 00:31:12;;;;;;;14.57;9.68;;;;;;;9.23;85.85;102304.63;5093245;28;20059;-75
2021/10/18 00:33:38;;;;;;;15.10;10.07;;;;;;;9.22;85.82;102294.97;5092573;28;20455;-75
2021/10/18 00:36:04;;;;;;;18.60;9.60;;;;;;;9.22;85.95;102302.06;5093386;28;20027;-76
2021/10/18 00:38:29;;;;;;;18.58;9.88;;;;;;;9.22;85.66;102297.63;5092860;28;20152;-74
2021/10/18 00:40:55;;;;;;;17.38;9.85;;;;;;;9.23;85.53;102306.44;5092413;28;20027;-74
2021/10/18 00:43:21;;;;;;;20.13;9.50;;;;;;;9.23;85.68;102309.94;5093269;28;20460;-75
2021/10/18 00:45:46;;;;;;;17.45;9.60;;;;;;;9.24;85.88;102306.34;5092769;28;20032;-74
2021/10/18 00:48:11;;;;;;;13.77;9.52;;;;;;;9.24;85.68;102308.13;5093143;28;20032;-75
2021/10/18 00:50:37;;;;;;;14.65;9.93;;;;;;;9.23;85.79;102306.44;5092552;28;20024;-75
2021/10/18 00:53:02;;;;;;;15.02;10.20;;;;;;;9.22;86.02;102302.91;5093207;28;20066;-75
2021/10/18 00:55:28;;;;;;;18.25;10.27;;;;;;;9.19;85.99;102311.09;5092938;28;20380;-74
2021/10/18 00:57:54;;;;;;;17.65;10.07;;;;;;;9.15;85.90;102306.91;5092724;28;20107;-75
2021/10/18 01:00:20;;;;;;;17.17;9.65;;;;;;;9.10;85.78;102301.88;5092736;28;20028;-75
2021/10/18 01:02:45;;;;;;;18.95;10.40;;;;;;;9.09;86.00;102296.66;5092200;28;20106;-75
2021/10/18 01:05:11;;;;;;;19.83;11.02;;;;;;;9.05;86.13;102298.66;5092721;28;20481;-75
2021/10/18 01:07:37;;;;;;;17.02;10.18;;;;;;;9.00;86.29;102295.41;5092963;28;20039;-75
2021/10/18 01:10:03;;;;;;;15.05;9.95;;;;;;;8.97;86.36;102295.59;5093049;28;20031;-74
2021/10/18 01:12:29;;;;;;;19.63;10.88;;;;;;;8.92;86.38;102303.84;5092458;28;20490;-74
2021/10/18 01:14:54;;;;;;;17.38;10.88;;;;;;;8.91;86.44;102298.63;5091721;28;20028;-75
2021/10/18 01:17:20;;;;;;;17.75;10.57;;;;;;;8.90;86.03;102297.78;5092575;28;20035;-75
2021/10/18 01:19:45;;;;;;;17.70;10.02;;;;;;;8.87;85.86;102297.97;5073991;28;20028;-75
2021/10/18 01:22:11;;;;;;;19.83;9.98;;;;;;;8.84;86.30;102290.19;5092505;28;20444;-75
2021/10/18 01:24:36;;;;;;;18.75;10.73;;;;;;;8.79;86.18;102289.59;5092752;28;20034;-75
2021/10/18 01:27:03;;;;;;;16.67;10.60;;;;;;;8.74;85.92;102284.56;5092264;28;20028;-75
2021/10/18 01:29:36;;;;;;;16.33;10.93;;;;;;;8.68;86.06;102274.31;5092732;28;20060;-75
2021/10/18 01:32:03;;;;;;;16.80;10.30;;;;;;;8.61;86.00;102281.81;5091775;28;20363;-75
2021/10/18 01:34:29;;;;;;;18.13;11.05;;;;;;;8.53;86.01;102277.91;5092502;28;20452;-75
2021/10/18 01:36:57;;;;;;;18.15;10.63;;;;;;;8.46;86.56;102277.38;5092083;28;20031;-75
2021/10/18 01:39:22;;;;;;;16.13;11.35;;;;;;;8.40;86.87;102262.66;5092618;28;20036;-76
2021/10/18 01:41:48;;;;;;;21.25;10.80;;;;;;;8.36;86.94;102263.81;5091996;28;20088;-76
2021/10/18 01:44:13;;;;;;;17.55;10.82;;;;;;;8.34;86.85;102256.88;5092251;28;20040;-75
2021/10/18 01:46:39;;;;;;;18.98;10.85;;;;;;;8.30;87.14;102266.81;5092750;28;20070;-75
2021/10/18 01:49:04;;;;;;;22.92;12.05;;;;;;;8.22;87.13;102269.88;5091937;28;20024;-75
2021/10/18 01:51:29;;;;;;;15.13;9.75;;;;;;;8.12;87.07;102271.34;5095557;28;20028;-75
2021/10/18 01:53:55;;;;;;;18.83;11.30;;;;;;;8.02;87.39;102276.34;5095695;28;20060;-76
2021/10/18 01:56:20;;;;;;;17.00;11.07;;;;;;;7.89;87.43;102270.88;5096587;28;20368;-76
2021/10/18 01:58:45;;;;;;;19.70;12.60;;;;;;;7.79;88.01;102272.31;5095688;28;20117;-76
2021/10/18 02:01:11;;;;;;;14.13;9.70;;;;;;;7.68;88.36;102277.38;5096305;28;20023;-76
2021/10/18 02:03:37;;;;;;;21.58;12.45;;;;;;;7.59;89.39;102269.00;5096487;28;20456;-75
2021/10/18 02:06:02;;;;;;;16.00;11.25;;;;;;;7.51;89.36;102280.94;5077546;28;20035;-75
2021/10/18 02:08:28;;;;;;;16.92;11.30;;;;;;;7.43;89.92;102277.88;5096060;28;20034;-76
2021/10/18 02:10:53;;;;;;;17.90;11.88;;;;;;;7.35;89.89;102273.00;5095704;28;20110;-76
2021/10/18 02:13:19;;;;;;;20.00;11.57;;;;;;;7.28;90.21;102267.16;5095887;28;20036;-76
2021/10/18 02:15:44;;;;;;;19.25;12.00;;;;;;;7.22;90.65;102264.84;5078077;28;20512;-75
2021/10/18 02:18:10;;;;;;;22.98;11.43;;;;;;;7.16;90.83;102266.03;5096186;28;20082;-75
2021/10/18 02:20:35;;;;;;;20.55;11.82;;;;;;;7.12;90.57;102260.97;5096258;28;20031;-75
2021/10/18 02:23:00;;;;;;;20.73;13.25;;;;;;;7.11;90.87;102267.22;5095374;28;20069;-75
2021/10/18 02:25:26;;;;;;;24.02;13.63;;;;;;;7.11;91.12;102256.66;5095984;28;20540;-75
2021/10/18 02:27:51;;;;;;;22.25;11.52;;;;;;;7.12;90.95;102259.22;5095295;28;20448;-76
2021/10/18 02:30:16;;;;;;;22.20;13.38;;;;;;;7.18;92.18;102261.53;5095675;28;20093;-75
2021/10/18 02:32:42;;;;;;;23.15;13.90;;;;;;;7.21;92.38;102258.72;5095772;28;20031;-75
2021/10/18 02:35:09;;;;;;;20.25;13.32;;;;;;;7.19;91.93;102257.06;5094839;28;20483;-75
2021/10/18 02:37:34;;;;;;;20.90;13.18;;;;;;;7.13;91.80;102252.13;5095771;28;20059;-75
2021/10/18 02:40:00;;;;;;;20.50;13.45;;;;;;;7.05;91.64;102256.03;5095329;28;20448;-76
2021/10/18 02:42:25;;;;;;;19.38;12.27;;;;;;;6.99;92.45;102256.34;5095734;28;20471;-75
2021/10/18 02:44:50;;;;;;;20.60;13.68;;;;;;;6.94;92.76;102254.88;5094936;28;20375;-75
2021/10/18 02:47:16;;;;;;;30.13;15.00;;;;;;;6.89;92.79;102248.03;5095773;28;20149;-76
2021/10/18 02:49:41;;;;;;;17.92;12.68;;;;;;;6.86;92.70;102248.19;5095171;28;20036;-75
2021/10/18 02:52:07;;;;;;;23.08;14.32;;;;;;;6.83;93.40;102251.00;5094829;28;20024;-75
2021/10/18 02:54:32;;;;;;;23.17;15.02;;;;;;;6.80;93.34;102255.59;5095425;28;20036;-75
2021/10/18 02:56:58;;;;;;;18.50;13.00;;;;;;;6.75;92.94;102253.22;5094742;28;20036;-76
2021/10/18 02:59:23;;;;;;;17.65;12.45;;;;;;;6.71;92.52;102257.78;5095078;28;20050;-75
2021/10/18 03:01:49;;;;;;;27.83;15.15;;;;;;;6.65;93.01;102255.47;5094360;28;20452;-75
2021/10/18 03:04:14;;;;;;;18.05;13.02;;;;;;;6.61;93.69;102261.81;5094609;28;20372;-75
2021/10/18 03:06:39;;;;;;;23.20;13.48;;;;;;;6.58;93.44;102254.06;5095603;28;20035;-76
2021/10/18 03:09:06;;;;;;;21.45;13.60;;;;;;;6.55;93.67;102258.66;5094608;28;20031;-75
2021/10/18 03:11:32;;;;;;;17.98;13.15;;;;;;;6.51;93.61;102265.91;5095294;28;20081;-74
2021/10/18 03:13:57;;;;;;;22.17;15.05;;;;;;;6.46;93.37;102260.81;5094494;28;20107;-74
2021/10/18 03:16:23;;;;;;;26.67;15.02;;;;;;;6.43;93.73;102260.13;5094893;28;20028;-75
2021/10/18 03:18:48;;;;;;;23.35;13.18;;;;;;;6.37;93.36;102253.34;5095039;28;20028;-75
2021/10/18 03:21:13;;;;;;;22.08;15.88;;;;;;;6.38;94.45;102255.06;5094277;28;20034;-75
2021/10/18 03:23:39;;;;;;;20.95;15.38;;;;;;;6.39;94.08;102255.91;5094881;28;20032;-74
2021/10/18 03:26:04;;;;;;;24.98;15.57;;;;;;;6.42;94.04;102255.75;5094145;28;20137;-75
2021/10/18 03:28:29;;;;;;;24.55;15.60;;;;;;;6.46;94.02;102254.69;5094451;28;20052;-75
2021/10/18 03:30:55;;;;;;;23.63;14.48;;;;;;;6.46;93.80;102257.34;5094078;28;20115;-75
2021/10/18 03:33:21;;;;;;;23.95;15.57;;;;;;;6.45;93.96;102258.25;5094645;28;20031;-76
2021/10/18 03:35:46;;;;;;;17.63;13.88;;;;;;;6.41;93.76;102249.63;5094584;28;20055;-75
2021/10/18 03:38:11;;;;;;;20.08;13.60;;;;;;;6.39;93.01;102248.00;5093953;28;20309;-75
2021/10/18 03:40:37;;;;;;;29.65;18.35;;;;;;;6.42;93.92;102250.47;5094448;28;20032;-75
2021/10/18 03:43:02;;;;;;;23.83;15.85;;;;;;;6.45;93.98;102255.59;5093801;28;20024;-75
2021/10/18 03:45:28;;;;;;;24.08;14.65;;;;;;;6.42;93.94;102259.28;5094512;28;20067;-75
2021/10/18 03:47:54;;;;;;;34.45;17.77;;;;;;;6.41;94.25;102262.00;5094172;28;20020;-75
2021/10/18 03:50:19;;;;;;;26.13;14.43;;;;;;;6.39;94.61;102255.91;5093845;28;20028;-75
2021/10/18 03:52:44;;;;;;;27.90;16.23;;;;;;;6.38;94.72;102256.88;5094001;28;20065;-75
2021/10/18 03:55:10;;;;;;;28.35;16.38;;;;;;;6.35;94.67;102258.72;5093572;28;20024;-75
2021/10/18 03:57:36;;;;;;;28.85;17.60;;;;;;;6.35;95.10;102266.66;5093923;28;20028;-75
2021/10/18 04:00:04;;;;;;;21.25;15.48;;;;;;;6.32;94.78;102264.16;5093597;28;20097;-75
2021/10/18 04:02:29;;;;;;;25.38;15.88;;;;;;;6.33;94.97;102267.69;5093779;28;20438;-74
2021/10/18 04:04:55;;;;;;;28.35;17.80;;;;;;;6.28;95.22;102262.59;5075868;28;20118;-75
2021/10/18 04:07:20;;;;;;;27.75;15.98;;;;;;;6.23;94.87;102262.00;5093324;28;20047;-74
2021/10/18 04:09:46;;;;;;;28.38;16.05;;;;;;;6.20;95.10;102263.94;5093828;28;20023;-76
2021/10/18 04:12:12;;;;;;;28.02;17.25;;;;;;;6.20;95.25;102264.78;5074993;28;20411;-75
2021/10/18 04:14:38;;;;;;;30.10;18.35;;;;;;;6.19;95.07;102252.50;5093790;28;20035;-75
2021/10/18 04:17:03;;;;;;;29.60;19.10;;;;;;;6.20;95.58;102256.84;5075154;28;20404;-75
2021/10/18 04:19:28;;;;;;;30.08;17.92;;;;;;;6.22;95.71;102262.91;5093770;28;20024;-74
2021/10/18 04:21:54;;;;;;;30.23;17.13;;;;;;;6.23;95.77;102254.06;5093778;28;20177;-76
2021/10/18 04:24:20;;;;;;;32.88;19.35;;;;;;;6.23;95.66;102261.13;5092774;28;20060;-75
2021/10/18 04:26:45;;;;;;;32.30;18.95;;;;;;;6.23;95.85;102256.69;5093593;28;20028;-75
2021/10/18 04:29:10;;;;;;;35.15;19.33;;;;;;;6.26;96.32;102261.00;5092799;28;20131;-76
2021/10/18 04:31:36;;;;;;;38.08;19.48;;;;;;;6.25;96.17;102268.03;5058665;28;20027;-75
2021/10/18 04:34:01;;;;;;;34.80;19.73;;;;;;;6.24;96.01;102263.72;5092974;28;20024;-83
2021/10/18 04:36:27;;;;;;;31.80;18.83;;;;;;;6.20;95.88;102261.28;5093355;28;20349;-76
2021/10/18 04:38:53;;;;;;;28.48;17.60;;;;;;;6.16;95.40;102258.78;5093555;28;20063;-75
2021/10/18 04:41:18;;;;;;;28.23;18.17;;;;;;;6.12;95.46;102265.16;5092766;28;20443;-75
2021/10/18 04:43:44;;;;;;;30.35;19.35;;;;;;;6.09;95.80;102264.44;5093232;28;20024;-76
2021/10/18 04:46:10;;;;;;;35.10;19.05;;;;;;;6.08;95.97;102268.88;5092779;28;20444;-76
2021/10/18 04:48:35;;;;;;;33.25;20.25;;;;;;;6.11;96.14;102270.53;5092935;28;20085;-75
2021/10/18 04:51:00;;;;;;;34.83;19.23;;;;;;;6.13;95.96;102273.94;5093620;28;20062;-76
2021/10/18 04:53:26;;;;;;;32.33;19.75;;;;;;;6.11;95.63;102278.47;5092237;28;20028;-75
2021/10/18 04:55:51;;;;;;;36.38;21.23;;;;;;;6.11;95.87;102278.47;5093212;28;20024;-76
2021/10/18 04:58:16;;;;;;;31.33;19.40;;;;;;;6.07;95.96;102276.88;5092424;28;20026;-75
2021/10/18 05:00:48;;;;;;;34.63;19.10;;;;;;;6.03;95.74;102277.97;5093205;28;20028;-75
2021/10/18 05:03:13;;;;;;;33.70;19.15;;;;;;;6.03;95.93;102277.97;5092331;28;20034;-76
2021/10/18 05:05:39;;;;;;;36.08;20.63;;;;;;;6.03;96.03;102273.56;5093021;28;20468;-75
2021/10/18 05:08:10;;;;;;;37.38;19.65;;;;;;;6.07;96.63;102267.16;5092560;28;20024;-81
2021/10/18 05:10:37;;;;;;;43.17;21.90;;;;;;;6.10;96.17;102267.00;5092865;28;20474;-76
2021/10/18 05:13:04;;;;;;;39.05;22.55;;;;;;;6.17;96.40;102267.56;5092497;28;20077;-76
2021/10/18 05:15:30;;;;;;;30.02;19.48;;;;;;;6.16;95.99;102272.00;5092266;28;20371;-76
2021/10/18 05:17:56;;;;;;;33.53;20.40;;;;;;;6.18;95.55;102277.22;5092529;28;20020;-76
2021/10/18 05:20:21;;;;;;;32.45;19.30;;;;;;;6.15;95.34;102285.28;5091935;28;20023;-76
2021/10/18 05:22:47;;;;;;;30.17;19.83;;;;;;;6.15;95.24;102295.84;5092761;28;20093;-76
2021/10/18 05:25:13;;;;;;;36.72;20.73;;;;;;;6.12;95.48;102302.16;5091627;28;20056;-76
2021/10/18 05:27:38;;;;;;;32.55;18.70;;;;;;;6.08;94.92;102295.31;5092761;28;20027;-76
2021/10/18 05:30:06;;;;;;;36.25;19.13;;;;;;;6.06;94.58;102293.66;5092757;28;20468;-77
2021/10/18 05:32:31;;;;;;;33.85;20.55;;;;;;;6.05;94.84;102291.97;5091817;28;20376;-76
2021/10/18 05:34:56;;;;;;;33.63;20.73;;;;;;;6.03;95.04;102291.16;5092708;28;20028;-75
2021/10/18 05:37:23;;;;;;;34.58;19.83;;;;;;;6.04;94.83;102287.59;5091897;28;20123;-76
2021/10/18 05:39:49;;;;;;;39.40;21.67;;;;;;;6.07;95.63;102282.16;5092526;28;20086;-76
2021/10/18 05:42:14;;;;;;;36.42;19.95;;;;;;;6.09;95.25;102269.72;5092026;28;20460;-76
2021/10/18 05:44:39;;;;;;;40.00;22.05;;;;;;;6.11;95.41;102275.81;5092201;28;20379;-76
2021/10/18 05:47:05;;;;;;;36.63;21.83;;;;;;;6.12;95.56;102281.03;5092496;28;20391;-75
2021/10/18 05:49:31;;;;;;;43.38;22.83;;;;;;;6.11;95.36;102276.66;5091854;28;20360;-76
2021/10/18 05:51:57;;;;;;;40.38;22.70;;;;;;;6.12;95.79;102272.22;5092306;28;20039;-75
2021/10/18 05:54:22;;;;;;;34.97;22.98;;;;;;;6.13;95.88;102287.16;5091829;28;20028;-75
2021/10/18 05:56:49;;;;;;;37.75;21.63;;;;;;;6.17;95.88;102272.88;5092470;28;20028;-76
2021/10/18 05:59:16;;;;;;;36.05;21.75;;;;;;;6.20;95.73;102275.34;5091643;28;20032;-75
2021/10/18 06:01:42;;;;;;;40.17;23.02;;;;;;;6.22;95.67;102272.63;5092263;28;20024;-74
2021/10/18 06:04:07;;;;;;;37.05;22.52;;;;;;;6.24;95.43;102276.03;5092453;28;20030;-75
2021/10/18 06:06:35;;;;;;;36.25;22.17;;;;;;;6.24;95.38;102278.69;5091636;28;20081;-74
2021/10/18 06:09:00;;;;;;;39.92;23.35;;;;;;;6.23;95.28;102277.00;5092401;28;20028;-75
2021/10/18 06:11:26;;;;;;;36.10;22.42;;;;;;;6.24;95.58;102276.91;5091652;28;20093;-75
2021/10/18 06:13:51;;;;;;;38.92;21.92;;;;;;;6.25;95.42;102277.78;5092021;28;20036;-75
2021/10/18 06:16:16;;;;;;;35.95;22.15;;;;;;;6.25;95.59;102283.06;5091718;28;20414;-75
2021/10/18 06:18:42;;;;;;;39.95;22.85;;;;;;;6.29;95.65;102284.63;5092154;28;20024;-75
2021/10/18 06:21:07;;;;;;;43.22;23.15;;;;;;;6.31;95.52;102283.59;5074167;28;20082;-75
2021/10/18 06:23:32;;;;;;;47.78;23.83;;;;;;;6.33;95.63;102278.25;5073426;28;20283;-76
2021/10/18 06:25:58;;;;;;;35.50;23.02;;;;;;;6.36;95.14;102275.47;5074072;28;20028;-75
2021/10/18 06:28:23;;;;;;;34.85;22.63;;;;;;;6.40;95.19;102287.56;5091110;28;20036;-75
2021/10/18 06:30:49;;;;;;;35.20;21.95;;;;;;;6.46;95.03;102291.69;5091921;28;20107;-75
2021/10/18 06:33:15;;;;;;;32.83;20.58;;;;;;;6.51;94.27;102295.00;5091533;28;20464;-83
2021/10/18 06:35:40;;;;;;;34.90;22.33;;;;;;;6.55;94.61;102299.16;5091967;28;20468;-74
2021/10/18 06:38:20;;;;;;;36.90;21.67;;;;;;;6.60;94.46;102298.94;5094304;28;20028;-74
2021/10/18 06:40:47;;;;;;;31.63;21.48;;;;;;;6.62;94.18;102302.38;5095723;28;20478;-74
2021/10/18 06:43:14;;;;;;;36.97;22.23;;;;;;;6.65;94.10;102295.13;5095541;28;20028;-75
2021/10/18 06:45:40;;;;;;;35.60;22.25;;;;;;;6.68;93.95;102296.78;5094956;28;20028;-74
2021/10/18 06:48:08;;;;;;;33.33;21.20;;;;;;;6.75;93.64;102299.94;5077433;28;20368;-74
2021/10/18 06:50:34;;;;;;;41.92;24.08;;;;;;;6.79;92.98;102302.38;5094739;28;20052;-75
2021/10/18 06:53:00;;;;;;;34.03;20.73;;;;;;;6.86;92.65;102301.09;5095134;28;20028;-74
2021/10/18 06:55:27;;;;;;;31.98;20.85;;;;;;;6.92;92.81;102294.66;5094655;28;20111;-74
2021/10/18 06:57:54;;;;;;;34.45;21.13;;;;;;;6.96;92.27;102298.00;5077448;28;20036;-75
2021/10/18 07:00:19;;;;;;;33.90;20.88;;;;;;;7.00;92.24;102297.75;5059974;28;20459;-75
2021/10/18 07:02:45;;;;;;;36.90;21.05;;;;;;;7.04;91.76;102304.59;5095229;28;20064;-74
2021/10/18 07:05:10;;;;;;;36.97;19.65;;;;;;;7.10;91.62;102306.06;5095228;28;20024;-74
2021/10/18 07:07:37;;;;;;;38.33;20.98;;;;;;;7.18;91.83;102316.25;5076466;28;20077;-74
2021/10/18 07:10:07;;;;;;;36.33;20.30;;;;;;;7.23;90.96;102322.16;5094999;28;20024;-74
2021/10/18 07:12:35;;;;;;;34.38;20.95;;;;;;;7.28;90.85;102325.41;5094392;28;20016;-75
2021/10/18 07:15:01;;;;;;;35.33;21.27;;;;;;;7.34;90.73;102327.72;5094528;28;20028;-75
2021/10/18 07:17:27;;;;;;;33.03;20.52;;;;;;;7.45;90.85;102334.25;5094380;28;20035;-75
2021/10/18 07:19:54;;;;;;;33.45;19.83;;;;;;;7.52;89.62;102338.28;5094969;28;20028;-75
2021/10/18 07:22:25;;;;;;;36.03;20.73;;;;;;;7.57;89.48;102339.75;5094738;28;20028;-74
2021/10/18 07:24:52;;;;;;;38.23;20.80;;;;;;;7.65;89.65;102344.63;5094950;28;20035;-75
2021/10/18 07:27:17;;;;;;;39.10;20.65;;;;;;;7.74;88.80;102351.22;5094544;28;20733;-75
2021/10/18 07:29:44;;;;;;;36.92;21.38;;;;;;;7.81;89.31;102351.72;5093565;28;20048;-75
2021/10/18 07:32:09;;;;;;;37.92;19.85;;;;;;;7.86;88.86;102347.91;5094888;28;20059;-76
2021/10/18 07:34:34;;;;;;;34.17;20.77;;;;;;;7.91;88.33;102348.53;5094082;28;20027;-75
2021/10/18 07:37:01;;;;;;;34.78;20.65;;;;;;;7.97;88.08;102354.41;5094759;28;20024;-76
2021/10/18 07:39:27;;;;;;;35.25;19.45;;;;;;;8.05;87.92;102353.03;5093913;28;20032;-76
2021/10/18 07:41:57;;;;;;;33.03;20.30;;;;;;;8.11;87.19;102347.41;5094194;28;20029;-75
2021/10/18 07:44:26;;;;;;;32.22;19.55;;;;;;;8.18;86.89;102349.69;5093856;28;20035;-84
2021/10/18 07:46:57;;;;;;;28.70;18.98;;;;;;;8.22;86.61;102354.75;5094385;28;20107;-76
2021/10/18 07:49:23;;;;;;;34.05;20.63;;;;;;;8.29;86.61;102353.44;5093759;28;20058;-84
2021/10/18 07:51:50;;;;;;;29.42;19.23;;;;;;;8.39;86.52;102352.91;5094166;28;20042;-76
2021/10/18 07:54:16;;;;;;;33.67;19.80;;;;;;;8.46;85.79;102352.53;5094203;28;20057;-76
2021/10/18 07:56:42;;;;;;;29.65;19.85;;;;;;;8.55;85.11;102332.56;5093468;28;20519;-76
2021/10/18 07:59:07;;;;;;;30.80;18.80;;;;;;;8.62;84.64;102341.03;5094020;28;20036;-76
2021/10/18 08:01:32;;;;;;;30.77;19.38;;;;;;;8.69;84.68;102342.38;5075345;28;20453;-75
2021/10/18 08:03:58;;;;;;;35.92;19.38;;;;;;;8.77;84.96;102344.59;5075908;28;20062;-75
2021/10/18 08:06:23;;;;;;;28.08;18.23;;;;;;;8.86;84.86;102329.91;5093622;28;20027;-75
2021/10/18 08:08:51;;;;;;;31.60;18.55;;;;;;;8.95;83.46;102342.63;5093425;28;20032;-75
2021/10/18 08:11:17;;;;;;;30.55;18.30;;;;;;;8.95;83.37;102343.47;5093883;28;20031;-75
2021/10/18 08:13:43;;;;;;;28.85;19.25;;;;;;;8.91;83.75;102336.66;5093035;28;20065;-75
2021/10/18 08:16:09;;;;;;;33.95;18.90;;;;;;;8.90;83.52;102329.63;5093825;28;20035;-75
2021/10/18 08:18:34;;;;;;;34.15;18.50;;;;;;;8.88;82.74;102328.00;5093106;28;20020;-75
2021/10/18 08:21:00;;;;;;;36.03;18.50;;;;;;;8.88;83.53;102326.19;5093661;28;20349;-75
2021/10/18 08:23:26;;;;;;;31.73;19.60;;;;;;;8.83;82.87;102317.66;5093894;28;20479;-75
2021/10/18 08:25:51;;;;;;;28.20;18.92;;;;;;;8.80;82.89;102320.50;5092942;28;20039;-76
2021/10/18 08:28:17;;;;;;;36.40;19.15;;;;;;;8.82;83.34;102323.91;5093711;28;20032;-75
2021/10/18 08:30:42;;;;;;;26.17;18.58;;;;;;;8.85;82.83;102320.25;5074378;28;20495;-75
2021/10/18 08:33:09;;;;;;;30.60;18.40;;;;;;;8.90;82.96;102327.00;5093203;28;20039;-76
2021/10/18 08:35:35;;;;;;;26.98;17.73;;;;;;;9.03;82.82;102327.09;5092846;28;20059;-76
2021/10/18 08:41:37;;;;;;;28.15;17.60;;;;;;;9.64;80.43;102316.28;5092841;28;20047;-76
2021/10/18 08:46:03;;;;;;;24.33;17.15;;;;;;;10.96;75.75;102298.78;5092987;28;20123;-75
2021/10/18 08:48:29;;;;;;;30.13;16.92;;;;;;;11.32;74.10;102296.31;5093322;28;20115;-76
2021/10/18 08:50:55;;;;;;;24.65;16.10;;;;;;;11.38;71.81;102296.72;5092474;28;20563;-76
2021/10/18 08:53:20;;;;;;;26.35;16.95;;;;;;;11.13;73.08;102297.59;5093003;28;20111;-76
2021/10/18 08:55:45;;;;;;;28.20;17.13;;;;;;;10.86;75.25;102300.38;5092514;28;20024;-76
2021/10/18 08:58:11;;;;;;;26.70;17.10;;;;;;;10.87;73.60;102294.94;5093099;28;20028;-78
2021/10/18 09:00:43;;;;;;;24.15;17.00;;;;;;;10.83;74.80;102296.09;5091416;28;20024;-77
2021/10/18 09:03:15;;;;;;;26.52;17.10;;;;;;;10.71;75.70;102289.81;5093065;28;20024;-77
2021/10/18 09:05:41;;;;;;;31.27;17.20;;;;;;;10.67;75.59;102277.66;5092348;28;20027;-76
2021/10/18 09:08:06;;;;;;;25.20;17.10;;;;;;;10.68;75.04;102286.50;5093026;28;20034;-76
2021/10/18 09:10:31;;;;;;;31.08;16.15;;;;;;;10.68;75.41;102276.69;5092884;28;20028;-78
2021/10/18 09:13:11;;;;;;;24.17;16.50;;;;;;;10.65;74.37;102271.59;5091963;28;20452;-77
2021/10/18 09:15:37;;;;;;;25.15;16.63;;;;;;;10.70;75.50;102273.94;5092163;28;20028;-76
2021/10/18 09:18:02;;;;;;;25.17;16.65;;;;;;;10.75;75.14;102280.66;5092797;28;20034;-77
2021/10/18 09:20:36;;;;;;;28.95;16.15;;;;;;;10.89;74.38;102285.03;5074723;28;20462;-78
2021/10/18 09:23:18;;;;;;;23.98;16.02;;;;;;;11.04;74.34;102279.59;5092769;28;20520;-78
2021/10/18 09:25:44;;;;;;;33.55;16.00;;;;;;;11.04;73.74;102287.59;5092218;28;20024;-77
2021/10/18 09:28:24;;;;;;;28.55;15.55;;;;;;;11.09;73.73;102288.09;5092741;28;20093;-77
2021/10/18 09:30:50;;;;;;;22.73;14.98;;;;;;;11.11;73.63;102291.53;5092390;28;20079;-79
2021/10/18 09:33:25;;;;;;;24.52;16.00;;;;;;;11.07;73.25;102292.69;5092793;28;20031;-77
2021/10/18 09:35:52;;;;;;;22.58;15.32;;;;;;;11.07;73.44;102290.03;5091929;28;20528;-77
2021/10/18 09:38:21;;;;;;;24.40;15.60;;;;;;;11.10;73.22;102282.66;5074547;28;20265;-77
2021/10/18 09:40:48;;;;;;;22.63;16.05;;;;;;;11.08;72.88;102292.59;5091959;28;20020;-74
2021/10/18 09:43:29;;;;;;;25.63;15.80;;;;;;;11.10;73.14;102290.66;5092556;28;20126;-76
2021/10/18 09:46:35;;;;;;;25.53;16.53;;;;;;;11.16;71.97;102285.88;5091854;28;20045;-74
2021/10/18 10:53:25;;;;;;;21.52;14.75;;;;;;;13.08;66.47;102219.16;5095151;28;20123;-76
2021/10/18 10:55:54;;;;;;;18.45;14.07;;;;;;;13.10;66.71;102209.22;5094959;28;20066;-77
2021/10/18 10:58:48;;;;;;;22.77;14.65;;;;;;;13.11;65.79;102205.59;5095501;28;20051;-75
2021/10/18 11:01:42;;;;;;;19.83;13.82;;;;;;;13.11;66.77;102214.47;5095413;28;20032;-76
2021/10/18 11:04:29;;;;;;;20.15;13.75;;;;;;;12.96;66.14;102207.66;5094522;28;20032;-77
2021/10/18 11:06:56;;;;;;;21.85;14.18;;;;;;;13.05;67.49;102206.94;5094952;28;20364;-77
2021/10/18 11:09:42;;;;;;;17.75;13.57;;;;;;;13.03;66.24;102199.03;5095177;28;20041;-75
2021/10/18 11:12:33;;;;;;;22.98;13.98;;;;;;;12.95;65.93;102203.28;5094229;28;20028;-76
2021/10/18 11:15:08;;;;;;;18.20;13.60;;;;;;;12.96;66.14;102199.66;5094630;28;20130;-75
2021/10/18 11:17:39;;;;;;;19.63;13.27;;;;;;;13.03;67.10;102198.16;5095094;28;20047;-77
2021/10/18 11:20:06;;;;;;;21.52;14.43;;;;;;;13.01;66.98;102198.28;5094395;28;20045;-77
2021/10/18 11:22:36;;;;;;;15.45;12.95;;;;;;;13.12;66.85;102202.81;5094501;28;20024;-77
2021/10/18 11:25:07;;;;;;;17.95;12.93;;;;;;;12.99;66.42;102188.72;5093877;28;20032;-74
2021/10/18 11:27:35;;;;;;;24.42;13.25;;;;;;;12.91;67.34;102177.78;5095065;28;20068;-76
2021/10/18 11:30:07;;;;;;;22.80;14.20;;;;;;;12.95;68.11;102176.56;5094056;28;20067;-74
2021/10/18 11:32:35;;;;;;;21.05;14.02;;;;;;;12.95;67.11;102182.75;5094359;28;20020;-75
2021/10/18 11:35:17;;;;;;;21.92;14.63;;;;;;;13.09;67.75;102160.25;5075637;28;20478;-75
2021/10/18 11:37:49;;;;;;;19.90;13.52;;;;;;;13.22;67.38;102160.13;5094513;28;20020;-75
2021/10/18 11:40:15;;;;;;;;;;;;;;;13.32;66.87;102154.91;5094245;28;20028;-74
2021/10/18 11:42:52;;;;;;;22.30;13.80;;;;;;;13.39;65.89;102154.31;5094018;28;20284;-76
2021/10/18 11:45:23;;;;;;;17.65;12.30;;;;;;;13.37;66.46;102140.19;5076275;28;20028;-76
2021/10/18 11:47:49;;;;;;;19.13;12.43;;;;;;;13.40;65.50;102131.97;5094460;28;20028;-76
2021/10/18 11:50:19;;;;;;;23.17;13.25;;;;;;;13.43;66.78;102132.66;5093819;28;20087;-76
2021/10/18 11:52:53;;;;;;;21.95;12.65;;;;;;;13.47;66.10;102129.63;5094361;28;20036;-77
2021/10/18 11:55:28;;;;;;;21.00;12.35;;;;;;;13.50;65.49;102125.84;5094302;28;20027;-76
2021/10/18 11:57:56;;;;;;;20.55;11.57;;;;;;;13.47;65.72;102142.97;5093363;28;20107;-79
2021/10/18 12:00:30;;;;;;;21.00;11.48;;;;;;;13.47;66.12;102153.69;5093616;28;20417;-76
2021/10/18 12:03:00;;;;;;;16.95;11.38;;;;;;;13.48;65.71;102158.06;5093561;28;20024;-77
2021/10/18 12:05:33;;;;;;;21.23;11.90;;;;;;;13.48;64.90;102143.81;5093931;28;20111;-75
2021/10/18 12:07:58;;;;;;;18.17;12.23;;;;;;;13.50;65.56;102134.69;5093526;28;20024;-75
2021/10/18 12:10:26;;;;;;;21.35;12.15;;;;;;;13.49;66.79;102132.16;5094168;28;20040;-75
2021/10/18 12:13:16;;;;;;;19.35;12.15;;;;;;;13.59;66.32;102143.78;5093818;28;20181;-77
2021/10/18 12:16:02;;;;;;;17.13;11.10;;;;;;;13.70;65.23;102137.53;5093771;28;20028;-75
2021/10/18 12:18:32;;;;;;;16.17;11.07;;;;;;;13.68;65.92;102135.00;5093736;28;20368;-76
2021/10/18 12:21:07;;;;;;;16.80;11.63;;;;;;;13.80;64.75;102143.00;5092881;28;20106;-77
2021/10/18 12:23:35;;;;;;;16.48;11.32;;;;;;;13.84;63.67;102142.59;5093833;28;20036;-76
2021/10/18 12:26:04;;;;;;;16.38;11.68;;;;;;;13.91;64.79;102150.94;5074896;28;20466;-77
2021/10/18 12:28:43;;;;;;;17.90;11.13;;;;;;;14.11;65.25;102166.19;5093622;28;20043;-76